Time;durP1;ratioP1;P1;durP2;ratioP2;P2;SDS_P1;SDS_P2;PMS_P1;PMS_P2;Temp;Humidity;BMP_temperature;BMP_pressure;BME280_temperature;BME280_humidity;BME280_pressure;Samples;Min_cycle;Max_cycle;Signal;HPM_P1;HPM_P2
2022/07/19 00:01:07;;;;;;;0.45;0.30;;;;;;;;;;5040439;28;20492;-73
2022/07/19 00:03:35;;;;;;;1.73;0.45;;;;;;;;;;5029124;28;20453;-73
2022/07/19 00:06:08;;;;;;;0.75;0.52;;;;;;;;;;5039236;28;20041;-72
2022/07/19 00:08:36;;;;;;;0.38;0.28;;;;;;;;;;5033375;28;20127;-73
2022/07/19 00:11:08;;;;;;;0.63;0.38;;;;;;;;;;5027422;28;20073;-73
2022/07/19 00:13:36;;;;;;;0.40;0.32;;;;;;;;;;5029893;28;20409;-73
2022/07/19 00:16:08;;;;;;;0.55;0.30;;;;;;;;;;5037495;28;20087;-73
2022/07/19 00:18:36;;;;;;;0.20;0.20;;;;;;;;;;5041274;28;20489;-73
2022/07/19 00:21:09;;;;;;;0.32;0.32;;;;;;;;;;5034487;28;20077;-73
2022/07/19 00:23:37;;;;;;;0.95;0.45;;;;;;;;;;5028631;28;20095;-72
2022/07/19 00:26:08;;;;;;;0.20;0.20;;;;;;;;;;5030000;28;20050;-72
2022/07/19 00:28:37;;;;;;;0.10;0.10;;;;;;;;;;5027967;28;20437;-73
2022/07/19 00:31:08;;;;;;;0.47;0.35;;;;;;;;;;5031494;28;20045;-73
2022/07/19 00:33:36;;;;;;;0.13;0.13;;;;;;;;;;5036845;28;20045;-73
2022/07/19 00:36:09;;;;;;;0.30;0.28;;;;;;;;;;5030061;28;20456;-73
2022/07/19 00:38:37;;;;;;;0.20;0.13;;;;;;;;;;5033996;28;20073;-72
2022/07/19 00:41:09;;;;;;;0.20;0.13;;;;;;;;;;5034183;28;20484;-73
2022/07/19 00:43:37;;;;;;;0.52;0.47;;;;;;;;;;5028590;28;20085;-72
2022/07/19 00:46:13;;;;;;;0.22;0.22;;;;;;;;;;5025353;28;20129;-72
2022/07/19 00:48:42;;;;;;;0.20;0.20;;;;;;;;;;5028213;28;20395;-72
2022/07/19 00:51:12;;;;;;;0.17;0.17;;;;;;;;;;5026922;28;20103;-72
2022/07/19 00:53:41;;;;;;;0.85;0.30;;;;;;;;;;5025130;28;20136;-72
2022/07/19 00:56:10;;;;;;;0.03;0.03;;;;;;;;;;5029891;28;20344;-73
2022/07/19 00:58:40;;;;;;;0.25;0.25;;;;;;;;;;5028282;28;20096;-73
2022/07/19 01:01:09;;;;;;;0.17;0.17;;;;;;;;;;5028244;28;20049;-73
2022/07/19 01:03:38;;;;;;;0.40;0.40;;;;;;;;;;5029628;28;20048;-73
2022/07/19 01:06:10;;;;;;;0.10;0.10;;;;;;;;;;5027294;28;20049;-73
2022/07/19 01:08:40;;;;;;;0.20;0.20;;;;;;;;;;5028379;28;20225;-73
2022/07/19 01:11:09;;;;;;;0.28;0.28;;;;;;;;;;5028571;28;20140;-73
2022/07/19 01:13:38;;;;;;;0.22;0.13;;;;;;;;;;5028220;28;20128;-73
2022/07/19 01:16:06;;;;;;;0.60;0.38;;;;;;;;;;5027470;28;20049;-73
2022/07/19 01:18:35;;;;;;;0.30;0.30;;;;;;;;;;5027582;28;20049;-73
2022/07/19 01:21:06;;;;;;;0.50;0.17;;;;;;;;;;5028357;28;20088;-73
2022/07/19 01:23:36;;;;;;;0.10;0.10;;;;;;;;;;5027118;28;20460;-73
2022/07/19 01:26:06;;;;;;;0.65;0.65;;;;;;;;;;5028263;28;20049;-73
2022/07/19 01:28:34;;;;;;;0.47;0.35;;;;;;;;;;5026837;28;20054;-72
2022/07/19 01:31:05;;;;;;;0.47;0.32;;;;;;;;;;5026563;28;20049;-73
2022/07/19 01:33:39;;;;;;;0.17;0.17;;;;;;;;;;5027430;28;20049;-73
2022/07/19 01:36:08;;;;;;;0.20;0.20;;;;;;;;;;5027781;28;20081;-73
2022/07/19 01:38:38;;;;;;;0.30;0.30;;;;;;;;;;5028444;28;20129;-72
2022/07/19 01:41:09;;;;;;;0.10;0.10;;;;;;;;;;5028773;28;20471;-73
2022/07/19 01:43:37;;;;;;;0.70;0.40;;;;;;;;;;5029190;28;20081;-72
2022/07/19 01:46:08;;;;;;;1.00;0.30;;;;;;;;;;5031872;28;20130;-72
2022/07/19 01:48:37;;;;;;;0.52;0.52;;;;;;;;;;5038634;28;20039;-72
2022/07/19 01:51:09;;;;;;;0.10;0.10;;;;;;;;;;5033299;28;20116;-72
2022/07/19 01:53:38;;;;;;;0.17;0.17;;;;;;;;;;5028848;28;20133;-72
2022/07/19 01:56:07;;;;;;;0.28;0.28;;;;;;;;;;5036660;28;20123;-72
2022/07/19 01:58:35;;;;;;;0.75;0.30;;;;;;;;;;5046980;28;20076;-73
2022/07/19 02:01:07;;;;;;;0.22;0.22;;;;;;;;;;5029688;28;20084;-73
2022/07/19 02:03:36;;;;;;;0.30;0.30;;;;;;;;;;5035180;28;20416;-72
2022/07/19 02:06:07;;;;;;;0.13;0.13;;;;;;;;;;5037067;28;20120;-73
2022/07/19 02:08:36;;;;;;;0.10;0.10;;;;;;;;;;5031162;28;20056;-72
2022/07/19 02:13:52;;;;;;;0.20;0.20;;;;;;;;;;5035329;28;20052;-73
2022/07/19 02:16:20;;;;;;;0.10;0.10;;;;;;;;;;5036910;28;21440;-72
2022/07/19 02:18:49;;;;;;;0.15;0.15;;;;;;;;;;5044899;28;20049;-72
2022/07/19 02:21:17;;;;;;;0.55;0.55;;;;;;;;;;5042149;28;20084;-72
2022/07/19 02:23:45;;;;;;;0.20;0.20;;;;;;;;;;5039415;28;20120;-73
2022/07/19 02:26:15;;;;;;;0.30;0.30;;;;;;;;;;5026441;28;20117;-72
2022/07/19 02:28:43;;;;;;;0.80;0.40;;;;;;;;;;5033936;28;20068;-72
2022/07/19 02:31:12;;;;;;;0.10;0.10;;;;;;;;;;5034898;28;20108;-73
2022/07/19 02:33:40;;;;;;;0.35;0.25;;;;;;;;;;5032011;28;20049;-72
2022/07/19 02:36:09;;;;;;;0.40;0.40;;;;;;;;;;5037437;28;20767;-72
2022/07/19 02:38:37;;;;;;;0.13;0.13;;;;;;;;;;5034033;28;20061;-73
2022/07/19 02:41:08;;;;;;;0.28;0.28;;;;;;;;;;5028616;28;20393;-72
2022/07/19 02:43:38;;;;;;;0.50;0.45;;;;;;;;;;5031983;28;20487;-73
2022/07/19 02:46:07;;;;;;;0.20;0.20;;;;;;;;;;5031737;28;20408;-72
2022/07/19 02:48:35;;;;;;;0.28;0.28;;;;;;;;;;5031456;28;20046;-72
2022/07/19 02:51:07;;;;;;;0.10;0.10;;;;;;;;;;5032551;28;20493;-73
2022/07/19 02:53:36;;;;;;;0.35;0.35;;;;;;;;;;5031947;28;20037;-72
2022/07/19 02:56:07;;;;;;;0.32;0.20;;;;;;;;;;5029456;28;20092;-72
2022/07/19 02:58:36;;;;;;;1.00;0.38;;;;;;;;;;5031871;28;20516;-72
2022/07/19 03:01:08;;;;;;;1.70;0.40;;;;;;;;;;5031206;28;20515;-72
2022/07/19 03:03:47;;;;;;;0.47;0.40;;;;;;;;;;5032359;28;20060;-72
2022/07/19 03:06:17;;;;;;;0.10;0.10;;;;;;;;;;5035511;28;20071;-72
2022/07/19 03:08:45;;;;;;;0.55;0.22;;;;;;;;;;5031812;28;20445;-72
2022/07/19 03:11:14;;;;;;;0.20;0.20;;;;;;;;;;5034001;28;20111;-72
2022/07/19 03:13:42;;;;;;;0.20;0.20;;;;;;;;;;5031282;28;20136;-72
2022/07/19 03:16:12;;;;;;;0.38;0.38;;;;;;;;;;5032463;28;20095;-72
2022/07/19 03:18:41;;;;;;;2.72;0.20;;;;;;;;;;5029920;28;20056;-72
2022/07/19 03:21:09;;;;;;;0.22;0.22;;;;;;;;;;5032267;28;20045;-73
2022/07/19 03:23:38;;;;;;;0.20;0.20;;;;;;;;;;5030430;28;20067;-72
2022/07/19 03:26:07;;;;;;;0.10;0.10;;;;;;;;;;5032968;28;20087;-72
2022/07/19 03:28:35;;;;;;;0.93;0.57;;;;;;;;;;5027970;28;20400;-72
2022/07/19 03:31:07;;;;;;;0.45;0.35;;;;;;;;;;5035183;28;20678;-72
2022/07/19 03:33:37;;;;;;;2.75;0.50;;;;;;;;;;5030610;28;20045;-72
2022/07/19 03:36:08;;;;;;;0.30;0.30;;;;;;;;;;5029773;28;20076;-72
2022/07/19 03:38:36;;;;;;;0.15;0.13;;;;;;;;;;5028498;28;20081;-72
2022/07/19 03:41:08;;;;;;;1.33;1.23;;;;;;;;;;5030040;28;20076;-72
2022/07/19 03:43:38;;;;;;;0.50;0.30;;;;;;;;;;5040177;28;20124;-72
2022/07/19 03:46:07;;;;;;;0.45;0.17;;;;;;;;;;5040491;28;20238;-72
2022/07/19 03:48:38;;;;;;;0.55;0.20;;;;;;;;;;5037877;28;20045;-72
2022/07/19 03:51:09;;;;;;;0.10;0.10;;;;;;;;;;5037308;28;20083;-72
2022/07/19 03:53:37;;;;;;;0.25;0.25;;;;;;;;;;5037293;28;20496;-72
2022/07/19 03:56:09;;;;;;;0.55;0.52;;;;;;;;;;5035485;28;20155;-72
2022/07/19 03:58:37;;;;;;;0.20;0.20;;;;;;;;;;5034445;28;20037;-72
2022/07/19 04:01:08;;;;;;;0.22;0.22;;;;;;;;;;5038623;28;20553;-72
2022/07/19 04:03:39;;;;;;;0.25;0.25;;;;;;;;;;5040926;28;20075;-72
2022/07/19 04:06:07;;;;;;;1.73;1.05;;;;;;;;;;5029412;28;20045;-72
2022/07/19 04:08:36;;;;;;;0.85;0.28;;;;;;;;;;5033297;28;20108;-72
2022/07/19 04:11:07;;;;;;;1.08;0.40;;;;;;;;;;5026745;28;20053;-72
2022/07/19 04:13:36;;;;;;;0.90;0.82;;;;;;;;;;5030794;28;20503;-72
2022/07/19 04:16:08;;;;;;;0.30;0.25;;;;;;;;;;5030642;28;20075;-72
2022/07/19 04:18:37;;;;;;;0.65;0.65;;;;;;;;;;5029562;28;20108;-72
2022/07/19 04:21:10;;;;;;;0.55;0.50;;;;;;;;;;5032786;28;20076;-72
2022/07/19 04:23:38;;;;;;;0.17;0.15;;;;;;;;;;5031020;28;20083;-72
2022/07/19 04:26:06;;;;;;;0.68;0.30;;;;;;;;;;5035657;28;20050;-72
2022/07/19 04:28:35;;;;;;;0.38;0.38;;;;;;;;;;5027824;28;20165;-72
2022/07/19 04:31:06;;;;;;;0.20;0.20;;;;;;;;;;5026215;28;20128;-72
2022/07/19 04:33:34;;;;;;;0.32;0.32;;;;;;;;;;5027958;28;20046;-72
2022/07/19 04:36:02;;;;;;;1.02;0.60;;;;;;;;;;5031465;28;20564;-72
2022/07/19 04:38:34;;;;;;;1.67;0.30;;;;;;;;;;5023021;28;20049;-72
2022/07/19 04:41:03;;;;;;;0.20;0.20;;;;;;;;;;5023365;28;20140;-72
2022/07/19 04:43:33;;;;;;;0.30;0.30;;;;;;;;;;5028752;28;20368;-72
2022/07/19 04:46:01;;;;;;;1.17;0.55;;;;;;;;;;5025649;28;20128;-72
2022/07/19 04:48:30;;;;;;;0.20;0.20;;;;;;;;;;5025919;28;20060;-72
2022/07/19 04:50:58;;;;;;;0.98;0.50;;;;;;;;;;5027899;28;20085;-72
2022/07/19 04:53:26;;;;;;;0.47;0.47;;;;;;;;;;5022980;28;20054;-73
2022/07/19 04:55:56;;;;;;;0.28;0.28;;;;;;;;;;5028666;28;20051;-72
2022/07/19 04:58:25;;;;;;;0.52;0.52;;;;;;;;;;5026679;28;20128;-71
2022/07/19 05:00:53;;;;;;;0.43;0.43;;;;;;;;;;5026713;28;20089;-70
2022/07/19 05:03:21;;;;;;;0.75;0.50;;;;;;;;;;5023435;28;20172;-70
2022/07/19 05:05:50;;;;;;;0.10;0.10;;;;;;;;;;5024787;28;20041;-71
2022/07/19 05:08:18;;;;;;;0.40;0.40;;;;;;;;;;5026009;28;20128;-71
2022/07/19 05:10:46;;;;;;;0.80;0.55;;;;;;;;;;5028944;28;20128;-70
2022/07/19 05:13:16;;;;;;;0.00;0.00;;;;;;;;;;5028903;28;20420;-70
2022/07/19 05:15:45;;;;;;;0.20;0.20;;;;;;;;;;5023225;28;20073;-71
2022/07/19 05:18:13;;;;;;;0.93;0.25;;;;;;;;;;5024708;28;20053;-71
2022/07/19 05:20:41;;;;;;;0.20;0.20;;;;;;;;;;5028570;28;21551;-71
2022/07/19 05:23:10;;;;;;;2.47;0.63;;;;;;;;;;5025660;28;20120;-70
2022/07/19 05:25:38;;;;;;;0.80;0.20;;;;;;;;;;5026232;28;20129;-70
2022/07/19 05:28:08;;;;;;;0.52;0.30;;;;;;;;;;5024536;28;21302;-70
2022/07/19 05:30:37;;;;;;;0.85;0.47;;;;;;;;;;5024920;28;20764;-70
2022/07/19 05:33:06;;;;;;;0.32;0.32;;;;;;;;;;5024598;28;20045;-70
2022/07/19 05:35:34;;;;;;;0.25;0.25;;;;;;;;;;5023946;28;20084;-70
2022/07/19 05:38:03;;;;;;;0.30;0.30;;;;;;;;;;5025365;28;20509;-71
2022/07/19 05:40:36;;;;;;;0.35;0.20;;;;;;;;;;5036890;28;20053;-70
2022/07/19 05:43:04;;;;;;;0.60;0.30;;;;;;;;;;5023961;28;20116;-70
2022/07/19 05:45:33;;;;;;;0.52;0.40;;;;;;;;;;5025187;28;20088;-70
2022/07/19 05:48:03;;;;;;;0.20;0.20;;;;;;;;;;5024423;28;20076;-70
2022/07/19 05:50:31;;;;;;;0.75;0.20;;;;;;;;;;5024351;28;20500;-70
2022/07/19 05:52:59;;;;;;;0.40;0.40;;;;;;;;;;5031513;28;20085;-71
2022/07/19 05:55:28;;;;;;;2.38;0.90;;;;;;;;;;5037765;28;20140;-71
2022/07/19 05:57:56;;;;;;;0.80;0.50;;;;;;;;;;5024054;28;20188;-71
2022/07/19 06:00:25;;;;;;;0.13;0.13;;;;;;;;;;5036939;28;20085;-71
2022/07/19 06:02:53;;;;;;;0.10;0.10;;;;;;;;;;5039659;28;20642;-70
2022/07/19 06:05:23;;;;;;;0.30;0.10;;;;;;;;;;5025868;28;20136;-70
2022/07/19 06:07:52;;;;;;;0.32;0.28;;;;;;;;;;5023479;28;20084;-71
2022/07/19 06:10:20;;;;;;;0.10;0.10;;;;;;;;;;5031819;28;20219;-71
2022/07/19 06:12:48;;;;;;;0.60;0.38;;;;;;;;;;5030193;28;20136;-71
2022/07/19 06:15:17;;;;;;;0.40;0.30;;;;;;;;;;5034899;28;20041;-71
2022/07/19 06:17:45;;;;;;;0.77;0.57;;;;;;;;;;5033826;28;20085;-71
2022/07/19 06:20:14;;;;;;;0.30;0.30;;;;;;;;;;5037286;28;20045;-69
2022/07/19 06:22:44;;;;;;;1.95;0.43;;;;;;;;;;5041369;28;20088;-70
2022/07/19 06:25:12;;;;;;;0.10;0.10;;;;;;;;;;5034846;28;20072;-70
2022/07/19 06:27:40;;;;;;;0.28;0.20;;;;;;;;;;5038606;28;20048;-71
2022/07/19 06:30:09;;;;;;;0.30;0.30;;;;;;;;;;5040378;28;20080;-71
2022/07/19 06:32:38;;;;;;;0.20;0.20;;;;;;;;;;5044970;28;20095;-71
2022/07/19 06:35:07;;;;;;;0.17;0.17;;;;;;;;;;5037076;28;20071;-71
2022/07/19 06:37:35;;;;;;;0.15;0.15;;;;;;;;;;5039840;28;20045;-71
2022/07/19 06:40:06;;;;;;;0.22;0.17;;;;;;;;;;5037271;28;20088;-71
2022/07/19 06:42:36;;;;;;;0.22;0.22;;;;;;;;;;5039563;28;20088;-71
2022/07/19 06:45:05;;;;;;;0.43;0.38;;;;;;;;;;5038213;28;20084;-71
2022/07/19 06:47:33;;;;;;;3.13;0.52;;;;;;;;;;5042158;28;20481;-71
2022/07/19 06:50:02;;;;;;;0.10;0.10;;;;;;;;;;5044116;28;20057;-71
2022/07/19 06:52:50;;;;;;;0.85;0.47;;;;;;;;;;5045701;28;20440;-71
2022/07/19 06:55:20;;;;;;;0.32;0.32;;;;;;;;;;5034628;28;20053;-71
2022/07/19 06:57:49;;;;;;;0.60;0.60;;;;;;;;;;5041839;28;20083;-72
2022/07/19 07:00:17;;;;;;;0.20;0.20;;;;;;;;;;5037452;28;20072;-72
2022/07/19 07:02:46;;;;;;;0.98;0.60;;;;;;;;;;5039805;28;20072;-72
2022/07/19 07:05:15;;;;;;;0.43;0.40;;;;;;;;;;5033714;28;20109;-72
2022/07/19 07:07:43;;;;;;;0.63;0.40;;;;;;;;;;5033858;28;20083;-72
2022/07/19 07:10:12;;;;;;;0.30;0.30;;;;;;;;;;5038502;28;20602;-71
2022/07/19 07:12:42;;;;;;;0.45;0.38;;;;;;;;;;5032372;28;20481;-71
2022/07/19 07:15:11;;;;;;;1.00;0.35;;;;;;;;;;5034907;28;20045;-71
2022/07/19 07:17:39;;;;;;;0.52;0.17;;;;;;;;;;5036781;28;20468;-73
2022/07/19 07:20:08;;;;;;;0.30;0.30;;;;;;;;;;5034199;28;20099;-72
2022/07/19 07:22:37;;;;;;;0.30;0.30;;;;;;;;;;5027692;28;20077;-70
2022/07/19 07:25:06;;;;;;;0.30;0.30;;;;;;;;;;5033807;28;20049;-71
2022/07/19 07:27:37;;;;;;;0.65;0.40;;;;;;;;;;5046139;28;20044;-71
2022/07/19 07:30:08;;;;;;;0.25;0.25;;;;;;;;;;5032091;28;20037;-71
2022/07/19 07:32:37;;;;;;;0.32;0.32;;;;;;;;;;5037820;28;20057;-72
2022/07/19 07:35:06;;;;;;;0.85;0.70;;;;;;;;;;5035927;28;20084;-72
2022/07/19 07:37:34;;;;;;;0.70;0.32;;;;;;;;;;5048164;28;20037;-71
2022/07/19 07:40:03;;;;;;;0.52;0.52;;;;;;;;;;5027016;28;20536;-70
2022/07/19 07:42:32;;;;;;;0.20;0.20;;;;;;;;;;5028070;28;20095;-71
2022/07/19 07:45:00;;;;;;;0.40;0.40;;;;;;;;;;5033361;28;20050;-71
2022/07/19 07:47:31;;;;;;;2.55;0.68;;;;;;;;;;5033418;28;20057;-70
2022/07/19 07:49:59;;;;;;;0.30;0.20;;;;;;;;;;5032002;28;20140;-71
2022/07/19 07:52:28;;;;;;;0.50;0.43;;;;;;;;;;5031102;28;20038;-70
2022/07/19 07:54:56;;;;;;;0.75;0.55;;;;;;;;;;5032429;28;20096;-72
2022/07/19 07:57:45;;;;;;;0.40;0.30;;;;;;;;;;5032694;28;20045;-71
2022/07/19 08:00:15;;;;;;;0.35;0.32;;;;;;;;;;5032148;28;20541;-71
2022/07/19 08:02:45;;;;;;;0.60;0.40;;;;;;;;;;5030133;28;20041;-72
2022/07/19 08:05:14;;;;;;;0.30;0.28;;;;;;;;;;5027126;28;20051;-71
2022/07/19 08:07:43;;;;;;;0.22;0.22;;;;;;;;;;5032555;28;20124;-73
2022/07/19 08:10:19;;;;;;;1.08;0.43;;;;;;;;;;5030601;28;20056;-72
2022/07/19 08:12:47;;;;;;;0.85;0.70;;;;;;;;;;5026342;28;20053;-71
2022/07/19 08:15:16;;;;;;;0.80;0.60;;;;;;;;;;5032645;28;20057;-71
2022/07/19 08:17:45;;;;;;;0.57;0.57;;;;;;;;;;5032506;28;20046;-72
2022/07/19 08:20:14;;;;;;;0.40;0.35;;;;;;;;;;5034377;28;20041;-71
2022/07/19 08:22:44;;;;;;;0.45;0.45;;;;;;;;;;5027411;28;20057;-71
2022/07/19 08:25:16;;;;;;;1.27;0.55;;;;;;;;;;5029788;28;20143;-71
2022/07/19 08:27:45;;;;;;;0.30;0.30;;;;;;;;;;5028954;28;20041;-72
2022/07/19 08:30:14;;;;;;;0.57;0.57;;;;;;;;;;5031188;28;20046;-72
2022/07/19 08:32:43;;;;;;;0.63;0.50;;;;;;;;;;5028523;28;20073;-72
2022/07/19 08:35:13;;;;;;;0.70;0.30;;;;;;;;;;5027411;28;20497;-71
2022/07/19 08:37:41;;;;;;;0.95;0.43;;;;;;;;;;5032358;28;20073;-73
2022/07/19 08:40:11;;;;;;;1.42;0.40;;;;;;;;;;5034786;28;20568;-73
2022/07/19 08:42:40;;;;;;;1.05;0.63;;;;;;;;;;5036406;28;20045;-72
2022/07/19 08:45:10;;;;;;;1.13;0.50;;;;;;;;;;5042476;28;20079;-72
2022/07/19 08:47:39;;;;;;;0.60;0.57;;;;;;;;;;5035325;28;20068;-71
2022/07/19 08:50:11;;;;;;;1.13;0.82;;;;;;;;;;5040736;28;20073;-73
2022/07/19 08:52:41;;;;;;;0.68;0.40;;;;;;;;;;5032330;28;20053;-70
2022/07/19 08:55:11;;;;;;;0.95;0.68;;;;;;;;;;5042510;28;20080;-73
2022/07/19 08:57:57;;;;;;;0.38;0.38;;;;;;;;;;5034892;28;20048;-72
2022/07/19 09:00:25;;;;;;;0.95;0.70;;;;;;;;;;5044331;28;20041;-73
2022/07/19 09:02:55;;;;;;;0.45;0.40;;;;;;;;;;5036347;28;20045;-72
2022/07/19 09:05:24;;;;;;;0.80;0.40;;;;;;;;;;5040583;28;20055;-71
2022/07/19 09:08:04;;;;;;;0.50;0.50;;;;;;;;;;5028801;28;20092;-73
2022/07/19 09:10:35;;;;;;;0.68;0.50;;;;;;;;;;5033122;28;20037;-72
2022/07/19 09:13:06;;;;;;;0.68;0.68;;;;;;;;;;5030914;28;20455;-71
2022/07/19 09:15:38;;;;;;;1.55;0.60;;;;;;;;;;5044055;28;20091;-71
2022/07/19 09:18:07;;;;;;;0.47;0.40;;;;;;;;;;5037037;28;20052;-72
2022/07/19 09:20:36;;;;;;;0.50;0.40;;;;;;;;;;5026938;28;20107;-71
2022/07/19 09:23:06;;;;;;;0.40;0.40;;;;;;;;;;5037977;28;20072;-73
2022/07/19 09:25:35;;;;;;;0.40;0.40;;;;;;;;;;5035044;28;20050;-72
2022/07/19 09:28:04;;;;;;;0.55;0.38;;;;;;;;;;5031127;28;20041;-71
2022/07/19 09:30:36;;;;;;;0.40;0.40;;;;;;;;;;5031884;28;20045;-72
2022/07/19 09:33:14;;;;;;;4.57;1.15;;;;;;;;;;5031690;28;20046;-70
2022/07/19 09:35:44;;;;;;;1.42;0.40;;;;;;;;;;5034814;28;20064;-72
2022/07/19 09:38:21;;;;;;;0.60;0.40;;;;;;;;;;5033669;28;20520;-73
2022/07/19 09:40:50;;;;;;;0.50;0.32;;;;;;;;;;5028918;28;20100;-71
2022/07/19 09:43:22;;;;;;;0.50;0.50;;;;;;;;;;5029170;28;20404;-72
2022/07/19 09:46:28;;;;;;;0.52;0.52;;;;;;;;;;5038618;28;20049;-71
2022/07/19 09:49:03;;;;;;;0.50;0.40;;;;;;;;;;5032050;28;20087;-72
2022/07/19 09:51:32;;;;;;;1.58;0.47;;;;;;;;;;5036463;28;20061;-73
2022/07/19 09:54:03;;;;;;;1.35;0.50;;;;;;;;;;5034475;28;20053;-73
2022/07/19 09:56:31;;;;;;;1.20;0.47;;;;;;;;;;5034701;28;20081;-72
2022/07/19 09:59:00;;;;;;;0.45;0.45;;;;;;;;;;5031980;28;20054;-73
2022/07/19 10:01:31;;;;;;;0.43;0.32;;;;;;;;;;5035986;28;20140;-72
2022/07/19 10:04:03;;;;;;;0.40;0.30;;;;;;;;;;5036408;28;20060;-72
2022/07/19 10:06:32;;;;;;;0.65;0.50;;;;;;;;;;5036907;28;20045;-72
2022/07/19 10:09:03;;;;;;;0.43;0.35;;;;;;;;;;5028704;28;20053;-73
2022/07/19 10:11:31;;;;;;;0.47;0.38;;;;;;;;;;5030698;28;20081;-73
2022/07/19 10:14:01;;;;;;;0.60;0.30;;;;;;;;;;5027550;28;20064;-73
2022/07/19 10:16:39;;;;;;;0.20;0.20;;;;;;;;;;5030279;28;20057;-74
2022/07/19 10:19:12;;;;;;;0.52;0.47;;;;;;;;;;5035847;28;20057;-72
2022/07/19 10:21:41;;;;;;;0.63;0.40;;;;;;;;;;5028157;28;20515;-72
2022/07/19 10:24:11;;;;;;;0.25;0.22;;;;;;;;;;5027988;28;20107;-73
2022/07/19 10:26:41;;;;;;;0.65;0.40;;;;;;;;;;5031271;28;20058;-70
2022/07/19 10:29:10;;;;;;;1.10;0.55;;;;;;;;;;5036242;28;20567;-70
2022/07/19 10:31:40;;;;;;;0.20;0.20;;;;;;;;;;5031183;28;20064;-73
2022/07/19 10:34:09;;;;;;;0.20;0.20;;;;;;;;;;5032936;28;20049;-73
2022/07/19 10:36:39;;;;;;;0.60;0.45;;;;;;;;;;5028672;28;20091;-70
2022/07/19 10:39:27;;;;;;;0.20;0.20;;;;;;;;;;5025515;28;20072;-71
2022/07/19 10:42:08;;;;;;;0.40;0.30;;;;;;;;;;5028381;28;20081;-70
2022/07/19 10:44:37;;;;;;;0.70;0.40;;;;;;;;;;5028520;28;20057;-71
2022/07/19 10:47:05;;;;;;;0.55;0.35;;;;;;;;;;5028536;28;20049;-71
2022/07/19 10:49:43;;;;;;;0.82;0.40;;;;;;;;;;5025659;28;20129;-71
2022/07/19 10:52:33;;;;;;;0.80;0.43;;;;;;;;;;5028871;28;20084;-71
2022/07/19 10:55:20;;;;;;;1.45;0.55;;;;;;;;;;5026547;28;20070;-71
2022/07/19 10:57:51;;;;;;;0.50;0.40;;;;;;;;;;5027780;28;20045;-70
2022/07/19 11:00:20;;;;;;;0.57;0.45;;;;;;;;;;5028252;28;20049;-72
2022/07/19 11:02:50;;;;;;;0.88;0.60;;;;;;;;;;5029357;28;20077;-70
2022/07/19 11:05:22;;;;;;;0.82;0.40;;;;;;;;;;5031200;28;20049;-71
2022/07/19 11:07:51;;;;;;;0.57;0.40;;;;;;;;;;5030352;28;20041;-70
2022/07/19 11:10:23;;;;;;;0.65;0.40;;;;;;;;;;5029459;28;20049;-70
2022/07/19 11:12:53;;;;;;;1.02;0.55;;;;;;;;;;5025236;28;20083;-71
2022/07/19 11:15:22;;;;;;;0.50;0.50;;;;;;;;;;5028597;28;20683;-70
2022/07/19 11:17:52;;;;;;;0.82;0.40;;;;;;;;;;5024829;28;20077;-71
2022/07/19 11:20:20;;;;;;;0.43;0.30;;;;;;;;;;5031964;28;20077;-72
2022/07/19 11:22:49;;;;;;;3.28;0.30;;;;;;;;;;5029994;28;20124;-72
2022/07/19 11:25:24;;;;;;;0.22;0.22;;;;;;;;;;5029133;28;20048;-72
2022/07/19 11:27:54;;;;;;;0.35;0.35;;;;;;;;;;5028700;28;20481;-70
2022/07/19 11:30:24;;;;;;;0.70;0.70;;;;;;;;;;5031420;28;20045;-70
2022/07/19 11:32:53;;;;;;;2.60;0.50;;;;;;;;;;5029684;28;20055;-70
2022/07/19 11:35:21;;;;;;;1.35;0.77;;;;;;;;;;5027169;28;20045;-70
2022/07/19 11:37:50;;;;;;;0.80;0.50;;;;;;;;;;5026329;28;20049;-71
2022/07/19 11:40:18;;;;;;;1.23;0.40;;;;;;;;;;5028631;28;20085;-70
2022/07/19 11:42:48;;;;;;;0.30;0.30;;;;;;;;;;5026611;28;20337;-71
2022/07/19 11:45:43;;;;;;;0.75;0.45;;;;;;;;;;5022143;28;20057;-70
2022/07/19 11:48:14;;;;;;;0.50;0.50;;;;;;;;;;5030916;28;20056;-70
2022/07/19 11:50:43;;;;;;;1.02;0.68;;;;;;;;;;5030924;28;20056;-70
2022/07/19 11:53:21;;;;;;;0.47;0.32;;;;;;;;;;5026527;28;20057;-71
2022/07/19 11:55:49;;;;;;;0.60;0.60;;;;;;;;;;5025177;28;20045;-70
2022/07/19 11:58:18;;;;;;;1.30;0.73;;;;;;;;;;5030393;28;20075;-70
2022/07/19 12:00:48;;;;;;;0.70;0.40;;;;;;;;;;5030754;28;20107;-72
2022/07/19 12:03:17;;;;;;;1.38;0.70;;;;;;;;;;5029911;28;20081;-72
2022/07/19 12:06:06;;;;;;;1.67;0.63;;;;;;;;;;5026128;28;20136;-74
2022/07/19 12:08:39;;;;;;;0.77;0.45;;;;;;;;;;5023217;28;20111;-72
2022/07/19 12:11:23;;;;;;;1.08;0.65;;;;;;;;;;5027605;28;20497;-72
2022/07/19 12:13:52;;;;;;;1.15;0.65;;;;;;;;;;5030981;28;20045;-72
2022/07/19 12:16:23;;;;;;;1.35;0.65;;;;;;;;;;5025043;28;20072;-74
2022/07/19 12:18:53;;;;;;;1.27;0.93;;;;;;;;;;5021865;28;20052;-71
2022/07/19 12:21:26;;;;;;;1.65;0.77;;;;;;;;;;5022971;28;20053;-73
2022/07/19 12:24:24;;;;;;;1.38;0.73;;;;;;;;;;5024709;28;20049;-74
2022/07/19 12:26:58;;;;;;;2.33;0.60;;;;;;;;;;4946421;28;20055;-71
2022/07/19 12:29:27;;;;;;;1.38;0.60;;;;;;;;;;5007386;28;20305;-71
2022/07/19 12:31:58;;;;;;;0.68;0.50;;;;;;;;;;5026113;28;20466;-72
2022/07/19 12:34:27;;;;;;;1.67;0.80;;;;;;;;;;5025662;28;20045;-71
2022/07/19 12:36:56;;;;;;;2.67;1.02;;;;;;;;;;5022649;28;20081;-71
2022/07/19 12:39:26;;;;;;;4.53;1.85;;;;;;;;;;5023345;28;20107;-71
2022/07/19 12:42:02;;;;;;;1.67;0.75;;;;;;;;;;5025177;28;20050;-72
2022/07/19 12:44:32;;;;;;;1.10;0.68;;;;;;;;;;5027992;28;20053;-72
2022/07/19 12:47:02;;;;;;;1.40;1.00;;;;;;;;;;5029376;28;20073;-72
2022/07/19 12:49:50;;;;;;;2.88;1.35;;;;;;;;;;5026218;28;20077;-72
2022/07/19 12:52:32;;;;;;;1.13;0.65;;;;;;;;;;5018692;28;20045;-72
2022/07/19 12:55:01;;;;;;;0.90;0.70;;;;;;;;;;5028230;28;20445;-72
2022/07/19 12:57:29;;;;;;;4.32;1.25;;;;;;;;;;5028987;28;20380;-72
2022/07/19 12:59:58;;;;;;;1.45;1.15;;;;;;;;;;5034839;28;20079;-72
2022/07/19 13:02:28;;;;;;;1.23;0.68;;;;;;;;;;5033109;28;20085;-72
2022/07/19 13:04:57;;;;;;;1.60;0.80;;;;;;;;;;5022996;28;20037;-72
2022/07/19 13:07:25;;;;;;;3.10;1.10;;;;;;;;;;5026629;28;20111;-72
2022/07/19 13:09:54;;;;;;;1.15;0.60;;;;;;;;;;5028676;28;20441;-73
2022/07/19 13:12:23;;;;;;;1.25;1.15;;;;;;;;;;5028991;28;20045;-72
2022/07/19 13:14:51;;;;;;;1.50;1.00;;;;;;;;;;5021180;28;20088;-73
2022/07/19 13:17:19;;;;;;;4.25;1.15;;;;;;;;;;5024161;28;20053;-74
2022/07/19 13:19:50;;;;;;;3.17;1.10;;;;;;;;;;5027037;28;20061;-73
2022/07/19 13:22:18;;;;;;;1.50;0.70;;;;;;;;;;5027290;28;20053;-74
2022/07/19 13:24:46;;;;;;;6.53;0.82;;;;;;;;;;5026672;28;20061;-73
2022/07/19 13:27:35;;;;;;;2.38;1.30;;;;;;;;;;5025549;28;20049;-73
2022/07/19 13:30:04;;;;;;;2.05;1.20;;;;;;;;;;5027320;28;20497;-74
2022/07/19 13:32:32;;;;;;;3.13;1.20;;;;;;;;;;5025644;28;20091;-74
2022/07/19 13:35:02;;;;;;;3.05;1.08;;;;;;;;;;5025640;28;20077;-74
2022/07/19 13:37:31;;;;;;;1.75;1.17;;;;;;;;;;5025267;28;20479;-74
2022/07/19 13:39:59;;;;;;;2.58;1.27;;;;;;;;;;5028722;28;20103;-73
2022/07/19 13:42:28;;;;;;;3.78;1.60;;;;;;;;;;5030076;28;20048;-74
2022/07/19 13:44:56;;;;;;;3.30;1.67;;;;;;;;;;5030073;28;20535;-73
2022/07/19 13:47:25;;;;;;;2.80;1.23;;;;;;;;;;5030383;28;20054;-74
2022/07/19 13:49:53;;;;;;;1.27;1.10;;;;;;;;;;5027332;28;20041;-73
2022/07/19 13:52:23;;;;;;;4.35;1.67;;;;;;;;;;5032605;28;20053;-73
2022/07/19 13:54:52;;;;;;;2.60;1.42;;;;;;;;;;5029030;28;20069;-74
2022/07/19 13:57:20;;;;;;;1.15;0.85;;;;;;;;;;5029780;28;20049;-73
2022/07/19 13:59:49;;;;;;;2.03;1.08;;;;;;;;;;5023709;28;20045;-74
2022/07/19 14:02:17;;;;;;;2.28;1.05;;;;;;;;;;5023273;28;20114;-74
2022/07/19 14:04:46;;;;;;;2.03;1.23;;;;;;;;;;5028751;28;20401;-74
2022/07/19 14:07:14;;;;;;;2.65;1.40;;;;;;;;;;5030946;28;20057;-74
2022/07/19 14:09:44;;;;;;;1.58;1.02;;;;;;;;;;5026288;28;20077;-74
2022/07/19 14:12:14;;;;;;;1.08;0.95;;;;;;;;;;5029905;28;20077;-73
2022/07/19 14:14:42;;;;;;;3.03;1.20;;;;;;;;;;5029408;28;20049;-74
2022/07/19 14:17:11;;;;;;;5.55;0.98;;;;;;;;;;5022607;28;20095;-74
2022/07/19 14:19:40;;;;;;;1.83;1.23;;;;;;;;;;5022839;28;20180;-73
2022/07/19 14:22:08;;;;;;;3.83;0.75;;;;;;;;;;5026126;28;20057;-73
2022/07/19 14:24:37;;;;;;;0.98;0.88;;;;;;;;;;5030616;28;20050;-72
2022/07/19 14:27:07;;;;;;;1.10;1.00;;;;;;;;;;5031381;28;20125;-73
2022/07/19 14:29:35;;;;;;;1.42;0.88;;;;;;;;;;5028196;28;20524;-73
2022/07/19 14:32:04;;;;;;;1.60;1.25;;;;;;;;;;5024270;28;20049;-73
2022/07/19 14:34:33;;;;;;;1.10;1.00;;;;;;;;;;5029908;28;20184;-73
2022/07/19 14:37:04;;;;;;;1.67;0.85;;;;;;;;;;5029096;28;20468;-73
2022/07/19 14:39:33;;;;;;;3.75;1.00;;;;;;;;;;5029020;28;20053;-73
2022/07/19 14:42:02;;;;;;;1.20;0.75;;;;;;;;;;5032509;28;20045;-73
2022/07/19 14:44:33;;;;;;;1.30;1.00;;;;;;;;;;5026299;28;20057;-73
2022/07/19 14:47:02;;;;;;;2.58;1.40;;;;;;;;;;5035473;28;20081;-73
2022/07/19 14:49:30;;;;;;;0.98;0.88;;;;;;;;;;5030636;28;20057;-74
2022/07/19 14:51:59;;;;;;;1.08;0.70;;;;;;;;;;5030208;28;20420;-74
2022/07/19 14:54:27;;;;;;;3.05;1.00;;;;;;;;;;5024915;28;20085;-74
2022/07/19 14:56:56;;;;;;;1.52;0.90;;;;;;;;;;5030046;28;20072;-74
2022/07/19 14:59:25;;;;;;;0.68;0.65;;;;;;;;;;5032030;28;20100;-73
2022/07/19 15:01:55;;;;;;;1.30;0.90;;;;;;;;;;5026917;28;20083;-74
2022/07/19 15:04:23;;;;;;;2.10;0.90;;;;;;;;;;5025699;28;20084;-74